createdAt,value
2023-03-02T00:02:18.967Z,4.87
2023-03-02T00:04:50.425Z,5.02
2023-03-02T00:07:22.910Z,4.74
2023-03-02T00:09:49.579Z,4.80
2023-03-02T00:12:16.188Z,4.59
2023-03-02T00:14:43.009Z,4.73
2023-03-02T00:17:10.563Z,4.79
2023-03-02T00:19:37.602Z,4.47
2023-03-02T00:22:04.236Z,4.30
2023-03-02T00:24:30.895Z,4.56
2023-03-02T00:26:57.615Z,4.52
2023-03-02T00:29:24.349Z,4.28
2023-03-02T00:31:51.094Z,4.39
2023-03-02T00:34:17.727Z,4.60
2023-03-02T00:36:44.521Z,4.31
2023-03-02T00:39:11.351Z,4.64
2023-03-02T00:41:37.885Z,4.46
2023-03-02T00:44:04.484Z,4.57
2023-03-02T00:46:31.446Z,4.91
2023-03-02T00:48:58.288Z,5.10
2023-03-02T00:51:25.216Z,5.12
2023-03-02T00:53:51.748Z,4.97
2023-03-02T00:56:18.247Z,4.92
2023-03-02T00:58:44.826Z,4.98
2023-03-02T01:01:12.623Z,4.85
2023-03-02T01:03:39.398Z,4.82
2023-03-02T01:06:06.515Z,4.53
2023-03-02T01:08:33.553Z,4.08
2023-03-02T01:11:01.439Z,4.09
2023-03-02T01:13:29.207Z,4.39
2023-03-02T01:16:02.886Z,4.04
2023-03-02T01:18:29.589Z,4.15
2023-03-02T01:21:09.542Z,4.34
2023-03-02T01:23:36.182Z,4.45
2023-03-02T01:26:03.023Z,4.34
2023-03-02T01:28:29.478Z,4.18
2023-03-02T01:30:56.018Z,4.62
2023-03-02T01:33:22.839Z,4.68
2023-03-02T01:35:49.504Z,4.59
2023-03-02T01:38:16.169Z,4.78
2023-03-02T01:40:42.758Z,4.54
2023-03-02T01:43:14.926Z,4.68
2023-03-02T01:45:48.108Z,4.71
2023-03-02T01:48:16.960Z,4.55
2023-03-02T01:50:43.674Z,4.73
2023-03-02T01:53:10.229Z,4.71
2023-03-02T01:55:38.274Z,4.66
2023-03-02T01:58:06.350Z,4.56
2023-03-02T02:00:37.595Z,4.24
2023-03-02T02:03:23.837Z,3.90
2023-03-02T02:06:17.962Z,4.16
2023-03-02T02:08:46.259Z,4.33
2023-03-02T02:11:13.176Z,4.15
2023-03-02T02:13:40.118Z,4.34
2023-03-02T02:16:07.388Z,4.30
2023-03-02T02:18:36.534Z,4.39
2023-03-02T02:21:04.968Z,4.44
2023-03-02T02:23:40.568Z,3.60
2023-03-02T02:26:21.096Z,3.71
2023-03-02T02:28:51.140Z,4.05
2023-03-02T02:31:23.641Z,4.18
2023-03-02T02:33:53.738Z,3.80
2023-03-02T02:36:23.214Z,4.12
2023-03-02T02:38:53.416Z,4.37
2023-03-02T02:41:23.695Z,4.44
2023-03-02T02:43:50.446Z,4.31
2023-03-02T02:46:17.265Z,4.55
2023-03-02T02:48:43.986Z,4.38
2023-03-02T02:51:15.338Z,4.53
2023-03-02T02:53:50.366Z,4.52
2023-03-02T02:56:17.503Z,4.28
2023-03-02T02:58:46.547Z,4.40
2023-03-02T03:01:15.198Z,4.14
2023-03-02T03:03:44.296Z,4.19
2023-03-02T03:06:17.893Z,3.76
2023-03-02T03:08:44.383Z,3.45
2023-03-02T03:11:13.096Z,3.93
2023-03-02T03:13:41.295Z,3.98
2023-03-02T03:16:10.357Z,3.82
2023-03-02T03:18:36.995Z,4.03
2023-03-02T03:21:03.742Z,4.09
2023-03-02T03:23:30.410Z,4.27
2023-03-02T03:25:57.052Z,3.96
2023-03-02T03:28:23.682Z,4.12
2023-03-02T03:30:50.608Z,4.25
2023-03-02T03:33:17.120Z,3.93
2023-03-02T03:35:43.714Z,3.96
2023-03-02T03:38:10.626Z,3.60
2023-03-02T03:40:37.199Z,3.33
2023-03-02T03:43:04.398Z,3.27
2023-03-02T03:45:31.253Z,3.24
2023-03-02T03:47:58.324Z,3.65
2023-03-02T03:50:25.053Z,3.50
2023-03-02T03:52:51.584Z,3.52
2023-03-02T03:55:19.508Z,3.73
2023-03-02T03:57:46.118Z,3.78
2023-03-02T04:00:15.065Z,4.09
2023-03-02T04:02:42.207Z,4.14
2023-03-02T04:05:09.402Z,3.90
2023-03-02T04:07:37.496Z,3.83
2023-03-02T04:10:06.061Z,4.06
2023-03-02T04:12:34.820Z,3.87
2023-03-02T04:15:01.409Z,3.76
2023-03-02T04:17:28.252Z,3.83
2023-03-02T04:19:54.976Z,3.95
2023-03-02T04:22:21.714Z,3.86
2023-03-02T04:24:50.244Z,3.80
2023-03-02T04:27:17.536Z,4.03
2023-03-02T04:29:44.832Z,3.79
2023-03-02T04:32:11.844Z,3.90
2023-03-02T04:34:38.389Z,3.77
2023-03-02T04:37:05.477Z,3.71
2023-03-02T04:39:32.048Z,4.05
2023-03-02T04:41:58.793Z,3.95
2023-03-02T04:44:25.584Z,4.06
2023-03-02T04:46:52.411Z,3.55
2023-03-02T04:49:19.611Z,3.99
2023-03-02T04:51:48.230Z,3.92
2023-03-02T04:54:18.226Z,4.01
2023-03-02T04:56:48.400Z,3.97
2023-03-02T04:59:25.858Z,3.94
2023-03-02T05:01:57.870Z,4.06
2023-03-02T05:04:24.950Z,4.11
2023-03-02T05:06:51.989Z,3.78
2023-03-02T05:09:19.068Z,3.67
2023-03-02T05:11:45.668Z,3.73
2023-03-02T05:14:13.055Z,3.61
2023-03-02T05:16:41.226Z,3.79
2023-03-02T05:19:10.010Z,3.77
2023-03-02T05:21:36.536Z,3.57
2023-03-02T05:24:03.345Z,3.73
2023-03-02T05:26:30.009Z,3.42
2023-03-02T05:28:56.941Z,3.35
2023-03-02T05:31:30.832Z,3.53
2023-03-02T05:33:57.990Z,3.75
2023-03-02T05:36:24.569Z,3.93
2023-03-02T05:38:51.152Z,3.77
2023-03-02T05:41:18.036Z,4.00
2023-03-02T05:43:44.815Z,3.97
2023-03-02T05:46:11.402Z,4.07
2023-03-02T05:48:37.940Z,4.09
2023-03-02T05:51:04.898Z,3.62
2023-03-02T05:53:31.558Z,3.91
2023-03-02T05:55:58.124Z,4.03
2023-03-02T05:58:24.844Z,3.97
2023-03-02T06:00:51.383Z,3.92
2023-03-02T06:03:18.638Z,4.05
2023-03-02T06:05:45.320Z,4.10
2023-03-02T06:08:11.864Z,4.13
2023-03-02T06:10:38.625Z,4.05
2023-03-02T06:13:05.133Z,3.82
2023-03-02T06:15:31.732Z,4.14
2023-03-02T06:17:58.302Z,3.95
2023-03-02T06:20:25.135Z,3.85
2023-03-02T06:22:51.907Z,3.98
2023-03-02T06:25:20.764Z,4.02
2023-03-02T06:27:51.518Z,3.70
2023-03-02T06:30:22.612Z,3.91
2023-03-02T06:32:49.547Z,3.98
2023-03-02T06:35:16.265Z,3.94
2023-03-02T06:37:44.351Z,3.88
2023-03-02T06:40:13.463Z,3.94
2023-03-02T06:42:41.028Z,4.03
2023-03-02T06:45:09.160Z,4.21
2023-03-02T06:47:35.793Z,4.13
2023-03-02T06:50:02.676Z,4.17
2023-03-02T06:52:29.210Z,4.04
2023-03-02T06:54:55.937Z,4.34
2023-03-02T06:57:22.841Z,4.36
2023-03-02T06:59:49.396Z,3.90
2023-03-02T07:02:16.354Z,4.45
2023-03-02T07:04:43.093Z,4.64
2023-03-02T07:07:09.631Z,4.51
2023-03-02T07:09:36.151Z,4.64
2023-03-02T07:12:02.790Z,4.67
2023-03-02T07:14:29.315Z,4.76
2023-03-02T07:16:57.506Z,4.59
2023-03-02T07:19:24.410Z,4.76
2023-03-02T07:21:50.890Z,4.97
2023-03-02T07:24:17.496Z,5.00
2023-03-02T07:26:44.061Z,4.71
2023-03-02T07:29:10.610Z,4.47
2023-03-02T07:31:37.370Z,3.98
2023-03-02T07:34:03.976Z,4.47
2023-03-02T07:36:30.479Z,4.79
2023-03-02T07:38:57.556Z,4.95
2023-03-02T07:41:24.114Z,5.11
2023-03-02T07:43:50.679Z,5.39
2023-03-02T07:46:17.763Z,5.50
2023-03-02T07:48:44.539Z,5.46
2023-03-02T07:51:11.302Z,5.72
2023-03-02T07:53:38.195Z,5.77
2023-03-02T07:56:09.744Z,5.75
2023-03-02T07:58:37.015Z,5.82
2023-03-02T08:01:04.422Z,6.00
2023-03-02T08:03:31.089Z,6.03
2023-03-02T08:05:57.860Z,6.02
2023-03-02T08:08:24.795Z,6.45
2023-03-02T08:10:51.416Z,6.16
2023-03-02T08:13:17.973Z,5.98
2023-03-02T08:15:44.650Z,5.65
2023-03-02T08:18:11.195Z,6.05
2023-03-02T08:20:38.225Z,6.36
2023-03-02T08:23:04.742Z,6.42
2023-03-02T08:25:31.469Z,6.14
2023-03-02T08:27:58.126Z,6.49
2023-03-02T08:30:24.937Z,6.72
2023-03-02T08:32:51.602Z,5.90
2023-03-02T08:35:18.333Z,6.44
2023-03-02T08:37:44.843Z,6.29
2023-03-02T08:40:11.888Z,6.78
2023-03-02T08:42:38.436Z,7.18
2023-03-02T08:45:05.595Z,6.99
2023-03-02T08:47:32.561Z,7.02
2023-03-02T08:49:59.250Z,7.45
2023-03-02T08:52:25.754Z,7.07
2023-03-02T08:54:52.558Z,7.53
2023-03-02T08:57:21.203Z,8.06
2023-03-02T08:59:47.934Z,8.13
2023-03-02T09:02:14.510Z,8.46
2023-03-02T09:04:41.834Z,7.96
2023-03-02T09:07:09.635Z,8.86
2023-03-02T09:09:36.212Z,8.89
2023-03-02T09:12:03.146Z,8.42
2023-03-02T09:14:29.725Z,8.70
2023-03-02T09:16:56.345Z,9.06
2023-03-02T09:19:22.959Z,10.18
2023-03-02T09:21:49.874Z,10.28
2023-03-02T09:24:16.568Z,10.00
2023-03-02T09:26:43.280Z,10.27
2023-03-02T09:29:10.213Z,10.90
2023-03-02T09:31:37.860Z,11.00
2023-03-02T09:34:05.187Z,11.18
2023-03-02T09:36:32.816Z,11.42
2023-03-02T09:38:59.488Z,11.15
2023-03-02T09:41:34.355Z,11.76
2023-03-02T09:44:01.058Z,11.62
2023-03-02T09:46:34.601Z,11.50
2023-03-02T09:49:07.212Z,11.51
2023-03-02T09:51:47.563Z,11.74
2023-03-02T09:54:19.556Z,11.93
2023-03-02T09:56:48.977Z,13.51
2023-03-02T09:59:26.662Z,17.76
2023-03-02T10:02:01.402Z,22.32
2023-03-02T10:04:31.617Z,23.92
2023-03-02T10:07:09.173Z,29.30
2023-03-02T10:09:35.951Z,30.99
2023-03-02T10:12:20.057Z,29.12
2023-03-02T10:14:55.387Z,30.70
2023-03-02T10:17:37.196Z,30.35
2023-03-02T10:20:08.823Z,30.65
2023-03-02T10:22:39.310Z,30.41
2023-03-02T10:25:15.043Z,35.89
2023-03-02T10:27:50.705Z,32.65
2023-03-02T10:30:19.972Z,35.56
2023-03-02T10:32:50.222Z,37.01
2023-03-02T10:35:18.136Z,33.26
2023-03-02T10:37:45.171Z,34.91
2023-03-02T10:40:29.662Z,37.19
2023-03-02T10:42:56.722Z,38.95
2023-03-02T10:45:28.772Z,38.28
2023-03-02T10:48:05.797Z,39.61
2023-03-02T10:50:33.138Z,37.64
2023-03-02T10:53:01.915Z,38.65
2023-03-02T10:55:29.598Z,33.96
2023-03-02T10:58:05.335Z,37.88
2023-03-02T11:00:34.187Z,38.35
2023-03-02T11:03:03.515Z,37.46
2023-03-02T11:05:44.404Z,37.74
2023-03-02T11:08:16.850Z,39.91
2023-03-02T11:11:01.867Z,38.17
2023-03-02T11:13:28.801Z,37.46
2023-03-02T11:16:22.183Z,37.44
2023-03-02T11:18:54.726Z,32.40
2023-03-02T11:21:36.106Z,34.42
2023-03-02T11:24:22.435Z,33.39
2023-03-02T11:26:55.798Z,36.10
2023-03-02T11:29:42.250Z,37.52
2023-03-02T11:32:09.020Z,36.65
2023-03-02T11:34:48.931Z,36.05
2023-03-02T11:37:24.243Z,34.48
2023-03-02T11:40:09.064Z,35.36
2023-03-02T11:42:44.853Z,32.22
2023-03-02T11:45:15.438Z,31.99
2023-03-02T11:48:02.084Z,35.79
2023-03-02T11:50:31.765Z,36.26
2023-03-02T11:53:02.021Z,33.24
2023-03-02T11:55:34.055Z,36.21
2023-03-02T11:58:03.542Z,35.89
2023-03-02T12:00:39.795Z,36.57
2023-03-02T12:03:07.560Z,34.10
2023-03-02T12:05:36.923Z,31.15
2023-03-02T12:08:20.365Z,30.42
2023-03-02T12:11:19.263Z,34.57
2023-03-02T12:13:48.872Z,34.50
2023-03-02T12:16:43.403Z,35.60
2023-03-02T12:19:39.730Z,37.23
2023-03-02T12:22:10.526Z,34.20
2023-03-02T12:24:38.922Z,33.40
2023-03-02T12:27:25.537Z,34.86
2023-03-02T12:29:56.868Z,36.31
2023-03-02T12:32:30.020Z,33.36
2023-03-02T12:35:00.862Z,26.79
2023-03-02T12:37:42.710Z,26.99
2023-03-02T12:40:12.356Z,24.76
2023-03-02T12:42:47.989Z,21.38
2023-03-02T12:45:32.628Z,19.04
2023-03-02T12:48:04.064Z,17.96
2023-03-02T12:50:32.758Z,16.99
2023-03-02T12:53:01.664Z,15.76
2023-03-02T12:55:28.251Z,16.36
2023-03-02T12:57:57.954Z,15.67
2023-03-02T13:00:28.517Z,15.07
2023-03-02T13:02:57.043Z,14.76
2023-03-02T13:05:29.183Z,14.66
2023-03-02T13:08:07.593Z,14.57
2023-03-02T13:10:38.094Z,14.55
2023-03-02T13:13:33.131Z,14.35
2023-03-02T13:16:02.134Z,14.19
2023-03-02T13:18:33.763Z,13.78
2023-03-02T13:21:01.651Z,14.42
2023-03-02T13:23:30.444Z,14.10
2023-03-02T13:25:59.192Z,13.94
2023-03-02T13:28:27.713Z,14.23
2023-03-02T13:31:03.771Z,14.71
2023-03-02T13:33:32.188Z,14.26
2023-03-02T13:35:59.217Z,14.35
2023-03-02T13:38:30.325Z,14.48
2023-03-02T13:40:57.689Z,13.98
2023-03-02T13:43:30.504Z,14.53
2023-03-02T13:46:01.984Z,14.51
2023-03-02T13:48:30.733Z,14.10
2023-03-02T13:50:59.251Z,14.27
2023-03-02T13:53:27.605Z,14.33
2023-03-02T13:55:54.820Z,14.87
2023-03-02T13:58:22.874Z,14.74
2023-03-02T14:00:50.126Z,14.33
2023-03-02T14:03:29.100Z,14.38
2023-03-02T14:05:56.708Z,14.16
2023-03-02T14:08:23.511Z,13.90
2023-03-02T14:10:52.759Z,14.48
2023-03-02T14:13:23.270Z,14.48
2023-03-02T14:15:52.479Z,14.49
2023-03-02T14:18:39.552Z,14.83
2023-03-02T14:21:12.522Z,14.95
2023-03-02T14:23:41.141Z,14.81
2023-03-02T14:26:35.175Z,14.57
2023-03-02T14:29:07.189Z,14.07
2023-03-02T14:31:34.810Z,14.10
2023-03-02T14:34:01.828Z,14.72
2023-03-02T14:36:33.801Z,14.33
2023-03-02T14:39:04.427Z,14.41
2023-03-02T14:41:34.434Z,14.44
2023-03-02T14:44:04.993Z,14.32
2023-03-02T14:46:31.629Z,14.36
2023-03-02T14:48:58.179Z,14.64
2023-03-02T14:51:27.077Z,13.99
2023-03-02T14:53:55.715Z,14.98
2023-03-02T14:56:25.116Z,15.18
2023-03-02T14:58:52.521Z,15.26
2023-03-02T15:01:20.050Z,15.09
2023-03-02T15:03:47.119Z,15.76
2023-03-02T15:06:26.064Z,15.52
2023-03-02T15:09:00.096Z,15.11
2023-03-02T15:11:27.593Z,14.84
2023-03-02T15:13:54.715Z,15.34
2023-03-02T15:16:21.838Z,15.68
2023-03-02T15:18:50.023Z,15.77
2023-03-02T15:21:24.549Z,15.85
2023-03-02T15:23:51.469Z,15.12
2023-03-02T15:26:18.272Z,14.95
2023-03-02T15:28:45.640Z,14.73
2023-03-02T15:31:17.632Z,14.50
2023-03-02T15:33:47.612Z,14.76
2023-03-02T15:36:14.587Z,14.50
2023-03-02T15:38:41.513Z,15.03
2023-03-02T15:41:12.363Z,14.37
2023-03-02T15:43:39.406Z,14.15
2023-03-02T15:46:06.994Z,14.84
2023-03-02T15:48:33.564Z,14.98
2023-03-02T15:51:05.168Z,14.76
2023-03-02T15:53:36.063Z,14.19
2023-03-02T15:56:09.052Z,14.12
2023-03-02T15:58:35.707Z,14.27
2023-03-02T16:01:12.774Z,13.92
2023-03-02T16:03:39.419Z,13.61
2023-03-02T16:06:08.656Z,13.94
2023-03-02T16:08:36.138Z,13.74
2023-03-02T16:11:05.964Z,13.35
2023-03-02T16:13:32.681Z,13.56
2023-03-02T16:16:04.695Z,13.41
2023-03-02T16:18:31.448Z,13.17
2023-03-02T16:20:58.274Z,13.17
2023-03-02T16:23:24.940Z,13.30
2023-03-02T16:25:52.503Z,12.85
2023-03-02T16:28:19.585Z,12.83
2023-03-02T16:30:46.761Z,12.38
2023-03-02T16:33:17.131Z,12.55
2023-03-02T16:35:44.669Z,12.30
2023-03-02T16:38:11.192Z,12.21
2023-03-02T16:40:40.119Z,12.10
2023-03-02T16:43:08.979Z,11.66
2023-03-02T16:45:35.898Z,11.49
2023-03-02T16:48:03.613Z,11.25
2023-03-02T16:50:30.748Z,11.28
2023-03-02T16:52:58.732Z,11.00
2023-03-02T16:55:25.757Z,10.85
2023-03-02T16:57:52.476Z,10.56
2023-03-02T17:00:20.152Z,10.52
2023-03-02T17:02:47.039Z,10.29
2023-03-02T17:05:15.469Z,10.38
2023-03-02T17:07:42.048Z,10.31
2023-03-02T17:10:14.089Z,10.42
2023-03-02T17:12:40.823Z,10.36
2023-03-02T17:15:08.227Z,10.08
2023-03-02T17:17:34.741Z,9.66
2023-03-02T17:20:01.245Z,9.75
2023-03-02T17:22:27.751Z,9.95
2023-03-02T17:24:54.281Z,9.55
2023-03-02T17:27:25.236Z,9.68
2023-03-02T17:29:52.389Z,9.47
2023-03-02T17:32:19.231Z,9.39
2023-03-02T17:34:46.416Z,9.62
2023-03-02T17:37:13.373Z,9.34
2023-03-02T17:39:40.348Z,9.24
2023-03-02T17:42:07.276Z,9.31
2023-03-02T17:44:34.628Z,8.98
2023-03-02T17:47:03.852Z,9.33
2023-03-02T17:49:31.040Z,8.93
2023-03-02T17:51:57.895Z,8.83
2023-03-02T17:54:24.516Z,8.82
2023-03-02T17:56:51.094Z,9.13
2023-03-02T17:59:17.727Z,8.89
2023-03-02T18:01:44.562Z,8.61
2023-03-02T18:04:11.697Z,8.43
2023-03-02T18:06:38.256Z,8.23
2023-03-02T18:09:05.128Z,7.90
2023-03-02T18:11:32.292Z,8.35
2023-03-02T18:13:59.381Z,8.26
2023-03-02T18:16:28.067Z,8.26
2023-03-02T18:18:55.766Z,7.95
2023-03-02T18:21:22.844Z,7.71
2023-03-02T18:23:49.426Z,7.98
2023-03-02T18:26:16.572Z,8.07
2023-03-02T18:28:43.149Z,7.76
2023-03-02T18:31:11.332Z,7.99
2023-03-02T18:33:37.954Z,7.85
2023-03-02T18:36:05.469Z,7.92
2023-03-02T18:38:33.471Z,7.87
2023-03-02T18:41:03.000Z,8.03
2023-03-02T18:43:31.664Z,7.85
2023-03-02T18:45:58.312Z,7.91
2023-03-02T18:48:25.237Z,7.84
2023-03-02T18:50:52.256Z,7.53
2023-03-02T18:53:18.954Z,7.66
2023-03-02T18:55:45.755Z,7.52
2023-03-02T18:58:20.538Z,7.74
2023-03-02T19:00:47.943Z,7.50
2023-03-02T19:03:16.425Z,7.41
2023-03-02T19:05:43.575Z,7.26
2023-03-02T19:08:10.707Z,6.64
2023-03-02T19:10:38.478Z,6.88
2023-03-02T19:13:05.637Z,6.91
2023-03-02T19:15:34.773Z,7.05
2023-03-02T19:18:01.473Z,6.67
2023-03-02T19:20:28.472Z,6.52
2023-03-02T19:22:55.345Z,6.72
2023-03-02T19:25:22.541Z,6.88
2023-03-02T19:27:49.076Z,7.01
2023-03-02T19:30:25.022Z,7.05
2023-03-02T19:32:54.034Z,7.01
2023-03-02T19:35:22.992Z,6.91
2023-03-02T19:37:49.750Z,7.06
2023-03-02T19:40:17.858Z,6.83
2023-03-02T19:42:45.574Z,6.96
2023-03-02T19:45:16.193Z,6.98
2023-03-02T19:47:43.184Z,6.91
2023-03-02T19:50:10.330Z,6.92
2023-03-02T19:52:38.347Z,6.96
2023-03-02T19:55:06.816Z,7.07
2023-03-02T19:57:33.587Z,7.20
2023-03-02T20:00:00.213Z,6.73
2023-03-02T20:02:37.322Z,6.97
2023-03-02T20:05:04.403Z,7.03
2023-03-02T20:07:31.273Z,7.05
2023-03-02T20:09:58.168Z,6.99
2023-03-02T20:12:24.731Z,6.63
2023-03-02T20:14:52.884Z,6.95
2023-03-02T20:17:20.249Z,7.09
2023-03-02T20:19:47.659Z,6.97
2023-03-02T20:22:14.443Z,6.73
2023-03-02T20:24:42.293Z,7.01
2023-03-02T20:27:11.540Z,7.02
2023-03-02T20:29:41.026Z,6.86
2023-03-02T20:32:09.179Z,6.86
2023-03-02T20:34:37.019Z,6.79
2023-03-02T20:37:04.977Z,6.72
2023-03-02T20:39:34.344Z,6.63
2023-03-02T20:42:01.356Z,6.55
2023-03-02T20:44:31.056Z,6.68
2023-03-02T20:47:00.428Z,6.71
2023-03-02T20:49:29.420Z,6.48
2023-03-02T20:51:59.272Z,6.25
2023-03-02T20:54:30.045Z,6.53
2023-03-02T20:56:57.062Z,6.75
2023-03-02T20:59:24.311Z,6.37
2023-03-02T21:01:51.609Z,6.74
2023-03-02T21:04:18.365Z,6.41
2023-03-02T21:06:46.219Z,6.32
2023-03-02T21:09:13.639Z,6.60
2023-03-02T21:11:40.716Z,6.65
2023-03-02T21:14:07.557Z,6.57
2023-03-02T21:16:39.181Z,6.69
2023-03-02T21:19:08.943Z,6.84
2023-03-02T21:21:41.871Z,6.94
2023-03-02T21:24:10.776Z,7.01
2023-03-02T21:26:37.786Z,6.91
2023-03-02T21:29:05.653Z,6.92
2023-03-02T21:31:32.756Z,6.42
2023-03-02T21:34:00.250Z,6.43
2023-03-02T21:36:27.798Z,6.81
2023-03-02T21:38:54.644Z,6.34
2023-03-02T21:41:21.492Z,6.62
2023-03-02T21:43:48.564Z,6.07
2023-03-02T21:46:18.203Z,6.33
2023-03-02T21:48:45.208Z,6.08
2023-03-02T21:51:13.292Z,6.40
2023-03-02T21:53:40.267Z,6.32
2023-03-02T21:56:07.584Z,6.24
2023-03-02T21:58:34.652Z,6.72
2023-03-02T22:01:01.186Z,6.19
2023-03-02T22:03:28.243Z,6.56
2023-03-02T22:05:54.822Z,6.48
2023-03-02T22:08:21.719Z,5.96
2023-03-02T22:10:50.322Z,6.65
2023-03-02T22:13:23.393Z,6.06
2023-03-02T22:15:56.761Z,6.47
2023-03-02T22:18:25.743Z,6.10
2023-03-02T22:20:52.735Z,5.92
2023-03-02T22:23:22.534Z,6.30
2023-03-02T22:25:52.452Z,6.19
2023-03-02T22:28:23.435Z,6.15
2023-03-02T22:30:51.422Z,6.39
2023-03-02T22:33:19.852Z,6.63
2023-03-02T22:35:47.609Z,6.74
2023-03-02T22:38:24.234Z,7.00
2023-03-02T22:40:51.775Z,7.23
2023-03-02T22:43:31.168Z,7.09
2023-03-02T22:46:20.246Z,6.68
2023-03-02T22:48:48.810Z,7.03
2023-03-02T22:51:21.319Z,6.78
2023-03-02T22:53:59.528Z,6.51
2023-03-02T22:56:36.027Z,6.51
2023-03-02T22:59:21.520Z,6.02
2023-03-02T23:01:48.874Z,6.23
2023-03-02T23:04:26.836Z,6.32
2023-03-02T23:06:55.763Z,5.83
2023-03-02T23:09:31.084Z,6.19
2023-03-02T23:12:00.418Z,6.16
2023-03-02T23:14:28.999Z,6.43
2023-03-02T23:17:16.928Z,6.56
2023-03-02T23:19:43.947Z,6.24
2023-03-02T23:22:11.086Z,6.27
2023-03-02T23:24:37.971Z,6.21
2023-03-02T23:27:05.044Z,6.40
2023-03-02T23:29:32.067Z,6.00
2023-03-02T23:31:58.756Z,6.23
2023-03-02T23:34:26.168Z,6.08
2023-03-02T23:36:52.696Z,6.07
2023-03-02T23:39:19.295Z,5.93
2023-03-02T23:41:46.057Z,6.37
2023-03-02T23:44:12.634Z,5.74
2023-03-02T23:46:39.384Z,5.73
2023-03-02T23:49:05.964Z,5.36
2023-03-02T23:51:33.184Z,5.71
2023-03-02T23:53:59.821Z,5.68
2023-03-02T23:56:26.387Z,5.72
2023-03-02T23:58:53.043Z,5.14
